createdAt,value
2018-02-14T00:00:34.102Z,100819.64
2018-02-14T00:03:01.604Z,100817.50
2018-02-14T00:05:29.108Z,100811.93
2018-02-14T00:07:56.612Z,100818.78
2018-02-14T00:10:24.115Z,100817.92
2018-02-14T00:12:51.610Z,100816.60
2018-02-14T00:15:19.095Z,100820.46
2018-02-14T00:17:46.586Z,100820.45
2018-02-14T00:20:14.087Z,100820.42
2018-02-14T00:22:41.574Z,100814.42
2018-02-14T00:25:09.064Z,100809.70
2018-02-14T00:27:36.605Z,100817.84
2018-02-14T00:30:04.104Z,100800.24
2018-02-14T00:32:31.583Z,100803.70
2018-02-14T00:34:59.061Z,100797.23
2018-02-14T00:37:26.547Z,100780.53
2018-02-14T00:39:54.040Z,100783.52
2018-02-14T00:42:21.547Z,100791.20
2018-02-14T00:44:49.032Z,100794.62
2018-02-14T00:47:16.542Z,100785.20
2018-02-14T00:49:44.023Z,100782.20
2018-02-14T00:52:11.502Z,100782.63
2018-02-14T00:54:39.017Z,100779.20
2018-02-14T00:57:06.518Z,100774.09
2018-02-14T00:59:34.027Z,100771.48
2018-02-14T01:02:01.507Z,100759.06
2018-02-14T01:04:28.987Z,100759.48
2018-02-14T01:06:56.490Z,100761.20
2018-02-14T01:09:23.996Z,100759.91
2018-02-14T01:11:51.478Z,100761.59
2018-02-14T01:14:19.011Z,100753.02
2018-02-14T01:16:46.519Z,100748.30
2018-02-14T01:19:16.927Z,100748.68
2018-02-14T01:21:50.223Z,100745.21
2018-02-14T01:24:17.713Z,100737.49
2018-02-14T01:26:45.193Z,100732.34
2018-02-14T01:29:12.686Z,100727.16
2018-02-14T01:31:40.174Z,100726.73
2018-02-14T01:34:07.669Z,100729.30
2018-02-14T01:36:35.159Z,100727.12
2018-02-14T01:39:02.674Z,100726.25
2018-02-14T01:41:30.171Z,100733.07
2018-02-14T01:43:57.680Z,100728.34
2018-02-14T01:46:25.163Z,100728.73
2018-02-14T01:48:52.660Z,100722.73
2018-02-14T01:51:20.150Z,100724.87
2018-02-14T01:53:47.647Z,100733.84
2018-02-14T01:56:15.131Z,100724.41
2018-02-14T01:58:42.631Z,100717.97
2018-02-14T02:01:10.127Z,100715.41
2018-02-14T02:03:37.620Z,100712.39
2018-02-14T02:06:05.112Z,100711.07
2018-02-14T02:08:32.607Z,100710.20
2018-02-14T02:11:00.094Z,100702.48
2018-02-14T02:13:27.610Z,100689.58
2018-02-14T02:15:55.121Z,100684.86
2018-02-14T02:18:22.594Z,100680.14
2018-02-14T02:20:50.080Z,100685.67
2018-02-14T02:23:17.572Z,100676.23
2018-02-14T02:25:45.077Z,100678.34
2018-02-14T02:28:12.546Z,100672.77
2018-02-14T02:30:40.030Z,100662.03
2018-02-14T02:33:07.507Z,100660.70
2018-02-14T02:35:34.987Z,100654.70
2018-02-14T02:38:02.484Z,100655.94
2018-02-14T02:40:31.771Z,100648.65
2018-02-14T02:42:59.260Z,100637.92
2018-02-14T02:45:26.754Z,100635.34
2018-02-14T02:47:54.230Z,100622.06
2018-02-14T02:50:21.723Z,100621.20
2018-02-14T02:52:49.207Z,100610.91
2018-02-14T02:55:16.698Z,100605.72
2018-02-14T02:57:44.181Z,100597.13
2018-02-14T03:00:13.583Z,100593.66
2018-02-14T03:02:41.062Z,100587.64
2018-02-14T03:05:08.543Z,100576.87
2018-02-14T03:07:36.024Z,100570.42
2018-02-14T03:10:03.494Z,100557.09
2018-02-14T03:12:30.992Z,100561.81
2018-02-14T03:14:58.470Z,100552.37
2018-02-14T03:17:25.948Z,100544.66
2018-02-14T03:19:53.431Z,100539.50
2018-02-14T03:22:20.898Z,100545.50
2018-02-14T03:24:48.355Z,100545.87
2018-02-14T03:27:15.851Z,100540.67
2018-02-14T03:29:43.285Z,100538.89
2018-02-14T03:32:10.794Z,100539.27
2018-02-14T03:34:38.239Z,100534.48
2018-02-14T03:37:05.759Z,100525.47
2018-02-14T03:39:33.234Z,100516.84
2018-02-14T03:42:00.706Z,100510.34
2018-02-14T03:44:28.189Z,100502.19
2018-02-14T03:46:55.670Z,100496.56
2018-02-14T03:49:23.143Z,100489.68
2018-02-14T03:51:50.631Z,100479.34
2018-02-14T03:54:18.117Z,100471.19
2018-02-14T03:56:45.608Z,100462.59
2018-02-14T03:59:13.109Z,100452.72
2018-02-14T04:01:40.604Z,100444.10
2018-02-14T04:04:08.076Z,100432.07
2018-02-14T04:06:35.560Z,100416.19
2018-02-14T04:09:03.040Z,100418.33
2018-02-14T04:11:30.542Z,100397.70
2018-02-14T04:13:58.008Z,100399.81
2018-02-14T04:16:25.500Z,100383.45
2018-02-14T04:18:52.983Z,100376.09
2018-02-14T04:21:20.457Z,100372.16
2018-02-14T04:23:47.942Z,100366.52
2018-02-14T04:26:15.433Z,100365.59
2018-02-14T04:28:42.899Z,100365.52
2018-02-14T04:31:10.396Z,100357.28
2018-02-14T04:33:37.873Z,100346.92
2018-02-14T04:36:05.313Z,100347.70
2018-02-14T04:38:32.822Z,100336.91
2018-02-14T04:41:00.315Z,100332.55
2018-02-14T04:43:27.792Z,100337.66
2018-02-14T04:45:55.279Z,100332.45
2018-02-14T04:48:22.769Z,100332.37
2018-02-14T04:50:50.253Z,100322.86
2018-02-14T04:53:17.738Z,100322.35
2018-02-14T04:55:45.219Z,100327.42
2018-02-14T04:58:12.708Z,100317.05
2018-02-14T05:00:40.176Z,100308.81
2018-02-14T05:03:07.682Z,100312.61
2018-02-14T05:05:35.165Z,100315.53
2018-02-14T05:08:02.761Z,100310.36
2018-02-14T05:10:30.242Z,100305.98
2018-02-14T05:12:57.722Z,100303.33
2018-02-14T05:15:25.215Z,100306.27
2018-02-14T05:17:52.699Z,100295.50
2018-02-14T05:20:20.183Z,100290.28
2018-02-14T05:22:47.655Z,100287.19
2018-02-14T05:25:15.153Z,100287.97
2018-02-14T05:27:42.631Z,100288.77
2018-02-14T05:30:10.116Z,100287.02
2018-02-14T05:32:37.606Z,100269.35
2018-02-14T05:35:05.088Z,100261.17
2018-02-14T05:37:32.585Z,100256.39
2018-02-14T05:40:00.094Z,100251.22
2018-02-14T05:42:27.583Z,100246.03
2018-02-14T05:44:55.073Z,100248.56
2018-02-14T05:47:22.558Z,100245.53
2018-02-14T05:49:50.035Z,100238.16
2018-02-14T05:52:17.527Z,100238.92
2018-02-14T05:54:45.011Z,100234.12
2018-02-14T05:57:12.483Z,100236.17
2018-02-14T05:59:39.965Z,100233.94
2018-02-14T06:02:07.450Z,100230.00
2018-02-14T06:04:34.948Z,100217.88
2018-02-14T06:07:02.376Z,100219.09
2018-02-14T06:09:29.881Z,100220.69
2018-02-14T06:11:57.354Z,100208.14
2018-02-14T06:14:24.834Z,100217.49
2018-02-14T06:16:52.329Z,100211.75
2018-02-14T06:19:19.818Z,100217.64
2018-02-14T06:21:47.261Z,100205.89
2018-02-14T06:24:14.778Z,100202.27
2018-02-14T06:26:42.266Z,100199.57
2018-02-14T06:29:09.767Z,100190.80
2018-02-14T06:31:37.247Z,100196.20
2018-02-14T06:34:04.731Z,100182.69
2018-02-14T06:36:32.204Z,100186.44
2018-02-14T06:38:59.703Z,100183.26
2018-02-14T06:41:27.192Z,100182.27
2018-02-14T06:43:54.675Z,100174.88
2018-02-14T06:46:22.160Z,100167.39
2018-02-14T06:48:49.653Z,100168.17
2018-02-14T06:51:17.136Z,100163.75
2018-02-14T06:53:44.610Z,100161.95
2018-02-14T06:56:12.092Z,100168.37
2018-02-14T06:58:39.567Z,100164.42
2018-02-14T07:01:07.056Z,100175.14
2018-02-14T07:03:34.539Z,100168.59
2018-02-14T07:06:02.999Z,100166.86
2018-02-14T07:08:30.495Z,100153.45
2018-02-14T07:10:58.027Z,100164.63
2018-02-14T07:13:25.551Z,100175.38
2018-02-14T07:15:53.035Z,100161.16
2018-02-14T07:18:20.506Z,100156.39
2018-02-14T07:20:48.011Z,100155.08
2018-02-14T07:23:15.495Z,100146.89
2018-02-14T07:25:42.965Z,100141.38
2018-02-14T07:28:10.444Z,100139.69
2018-02-14T07:30:37.932Z,100144.94
2018-02-14T07:33:05.371Z,100147.18
2018-02-14T07:35:32.879Z,100148.07
2018-02-14T07:38:00.354Z,100145.56
2018-02-14T07:40:27.847Z,100145.17
2018-02-14T07:42:55.343Z,100146.52
2018-02-14T07:45:22.826Z,100134.49
2018-02-14T07:47:50.331Z,100131.91
2018-02-14T07:50:17.811Z,100126.77
2018-02-14T07:52:45.284Z,100125.48
2018-02-14T07:55:12.772Z,100114.78
2018-02-14T07:57:40.445Z,100118.66
2018-02-14T08:00:07.942Z,100119.94
2018-02-14T08:02:35.440Z,100115.16
2018-02-14T08:05:02.916Z,100117.36
2018-02-14T08:07:30.395Z,100113.94
2018-02-14T08:09:57.887Z,100112.20
2018-02-14T08:12:25.367Z,100099.30
2018-02-14T08:14:52.850Z,100085.05
2018-02-14T08:17:20.399Z,100091.05
2018-02-14T08:19:47.891Z,100093.21
2018-02-14T08:22:15.483Z,100102.67
2018-02-14T08:24:42.971Z,100098.80
2018-02-14T08:27:10.427Z,100093.19
2018-02-14T08:29:38.021Z,100094.06
2018-02-14T08:32:06.589Z,100086.74
2018-02-14T08:34:34.075Z,100081.13
2018-02-14T08:37:01.514Z,100074.26
2018-02-14T08:39:29.023Z,100074.26
2018-02-14T08:41:56.514Z,100074.23
2018-02-14T08:44:24.008Z,100066.02
2018-02-14T08:46:51.518Z,100050.49
2018-02-14T08:49:19.196Z,100044.03
2018-02-14T08:51:47.877Z,100044.02
2018-02-14T08:54:15.397Z,100045.73
2018-02-14T08:56:42.887Z,100040.57
2018-02-14T08:59:10.358Z,100039.67
2018-02-14T09:01:38.011Z,100033.69
2018-02-14T09:04:05.463Z,100037.52
2018-02-14T09:06:32.979Z,100036.22
2018-02-14T09:09:00.424Z,100023.30
2018-02-14T09:11:27.934Z,100032.75
2018-02-14T09:13:55.423Z,100023.64
2018-02-14T09:16:22.895Z,100017.59
2018-02-14T09:18:50.379Z,100032.20
2018-02-14T09:21:17.846Z,100027.45
2018-02-14T09:23:45.329Z,100027.80
2018-02-14T09:26:12.806Z,100030.72
2018-02-14T09:28:40.268Z,100025.91
2018-02-14T09:31:07.777Z,100011.66
2018-02-14T09:33:35.286Z,100008.52
2018-02-14T09:36:02.963Z,100023.07
2018-02-14T09:38:30.437Z,100013.06
2018-02-14T09:40:57.914Z,100009.94
2018-02-14T09:43:25.412Z,100012.88
2018-02-14T09:45:52.938Z,100002.87
2018-02-14T09:48:20.419Z,100014.38
2018-02-14T09:50:47.914Z,100019.00
2018-02-14T09:53:15.393Z,100009.41
2018-02-14T09:55:42.891Z,100005.77
2018-02-14T09:58:10.364Z,99999.17
2018-02-14T10:00:37.852Z,99993.02
2018-02-14T10:03:05.321Z,99997.64
2018-02-14T10:05:32.815Z,99985.02
2018-02-14T10:08:00.292Z,99970.70
2018-02-14T10:10:27.818Z,99983.02
2018-02-14T10:12:55.291Z,99992.42
2018-02-14T10:15:22.800Z,99991.90
2018-02-14T10:17:50.300Z,99975.84
2018-02-14T10:20:17.791Z,99971.02
2018-02-14T10:22:45.279Z,99961.85
2018-02-14T10:25:12.807Z,99953.16
2018-02-14T10:27:40.288Z,99960.36
2018-02-14T10:30:07.775Z,99954.21
2018-02-14T10:32:35.244Z,99960.12
2018-02-14T10:35:02.770Z,99952.75
2018-02-14T10:37:30.236Z,99956.52
2018-02-14T10:39:57.722Z,99952.15
2018-02-14T10:42:25.212Z,99951.25
2018-02-14T10:44:52.716Z,99951.55
2018-02-14T10:47:20.208Z,99958.78
2018-02-14T10:49:47.711Z,99946.19
2018-02-14T10:52:15.200Z,99945.19
2018-02-14T10:54:42.666Z,99953.24
2018-02-14T10:57:10.162Z,99953.55
2018-02-14T10:59:37.651Z,99941.79
2018-02-14T11:02:10.884Z,99947.25
2018-02-14T11:04:43.846Z,99937.27
2018-02-14T11:07:16.925Z,99933.23
2018-02-14T11:09:44.406Z,99936.11
2018-02-14T11:12:11.895Z,99922.56
2018-02-14T11:14:39.388Z,99903.03
2018-02-14T11:17:06.864Z,99896.41
2018-02-14T11:19:34.336Z,99891.45
2018-02-14T11:22:01.840Z,99884.41
2018-02-14T11:24:29.468Z,99884.18
2018-02-14T11:26:56.952Z,99876.95
2018-02-14T11:29:24.433Z,99875.34
2018-02-14T11:31:51.925Z,99876.78
2018-02-14T11:34:19.442Z,99873.63
2018-02-14T11:36:46.938Z,99877.28
2018-02-14T11:39:14.507Z,99887.55
2018-02-14T11:41:41.990Z,99873.96
2018-02-14T11:44:09.491Z,99868.55
2018-02-14T11:46:36.979Z,99865.40
2018-02-14T11:49:04.463Z,99868.84
2018-02-14T11:51:31.967Z,99878.09
2018-02-14T11:53:59.452Z,99886.17
2018-02-14T11:56:26.963Z,99881.18
2018-02-14T11:58:54.455Z,99885.73
2018-02-14T12:01:21.954Z,99880.88
2018-02-14T12:03:49.448Z,99881.16
2018-02-14T12:06:17.039Z,99873.72
2018-02-14T12:08:45.554Z,99865.80
2018-02-14T12:11:13.056Z,99856.61
2018-02-14T12:13:40.530Z,99855.23
2018-02-14T12:16:08.027Z,99861.61
2018-02-14T12:18:35.535Z,99858.60
2018-02-14T12:21:03.005Z,99861.20
2018-02-14T12:23:30.449Z,99859.02
2018-02-14T12:25:57.972Z,99858.55
2018-02-14T12:28:25.476Z,99855.89
2018-02-14T12:30:52.967Z,99852.88
2018-02-14T12:33:20.459Z,99862.31
2018-02-14T12:35:47.952Z,99867.42
2018-02-14T12:38:15.457Z,99873.84
2018-02-14T12:40:42.967Z,99868.64
2018-02-14T12:43:10.450Z,99863.45
2018-02-14T12:45:37.952Z,99857.76
2018-02-14T12:48:05.456Z,99860.71
2018-02-14T12:50:32.958Z,99854.14
2018-02-14T12:53:00.452Z,99844.53
2018-02-14T12:55:27.959Z,99836.24
2018-02-14T12:57:56.332Z,99823.28
2018-02-14T13:00:23.836Z,99828.83
2018-02-14T13:02:51.329Z,99815.81
2018-02-14T13:05:18.880Z,99819.22
2018-02-14T13:07:46.386Z,99807.81
2018-02-14T13:10:13.869Z,99807.99
2018-02-14T13:12:41.361Z,99794.66
2018-02-14T13:15:08.851Z,99776.78
2018-02-14T13:17:36.346Z,99781.45
2018-02-14T13:20:03.853Z,99778.93
2018-02-14T13:22:31.337Z,99776.37
2018-02-14T13:24:58.814Z,99781.23
2018-02-14T13:27:26.306Z,99777.41
2018-02-14T13:29:53.798Z,99783.55
2018-02-14T13:32:21.321Z,99781.09
2018-02-14T13:34:48.814Z,99779.63
2018-02-14T13:37:16.312Z,99766.77
2018-02-14T13:39:43.795Z,99775.23
2018-02-14T13:42:11.914Z,99778.57
2018-02-14T13:44:39.548Z,99782.65
2018-02-14T13:47:07.025Z,99781.28
2018-02-14T13:49:34.517Z,99773.33
2018-02-14T13:52:03.951Z,99767.41
2018-02-14T13:54:31.676Z,99768.96
2018-02-14T13:57:00.332Z,99766.59
2018-02-14T13:59:28.335Z,99763.11
2018-02-14T14:01:56.919Z,99760.78
2018-02-14T14:04:24.615Z,99752.33
2018-02-14T14:06:52.534Z,99756.39
2018-02-14T14:09:20.058Z,99752.64
2018-02-14T14:11:48.778Z,99743.23
2018-02-14T14:14:21.807Z,99736.88
2018-02-14T14:16:49.884Z,99732.84
2018-02-14T14:19:18.557Z,99728.99
2018-02-14T14:21:46.467Z,99737.66
2018-02-14T14:24:16.552Z,99731.09
2018-02-14T14:26:44.982Z,99732.71
2018-02-14T14:29:12.463Z,99734.85
2018-02-14T14:31:39.954Z,99741.95
2018-02-14T14:34:07.472Z,99740.31
2018-02-14T14:36:35.540Z,99734.92
2018-02-14T14:39:03.007Z,99735.09
2018-02-14T14:41:30.491Z,99731.17
2018-02-14T14:43:58.085Z,99729.77
2018-02-14T14:46:25.583Z,99728.71
2018-02-14T14:48:53.285Z,99723.62
2018-02-14T14:51:20.800Z,99722.56
2018-02-14T14:53:48.324Z,99731.23
2018-02-14T14:56:15.815Z,99733.66
2018-02-14T14:58:43.317Z,99735.38
2018-02-14T15:01:10.808Z,99743.06
2018-02-14T15:03:38.310Z,99743.48
2018-02-14T15:06:05.865Z,99739.33
2018-02-14T15:08:34.377Z,99744.46
2018-02-14T15:11:01.881Z,99746.95
2018-02-14T15:13:29.512Z,99747.76
2018-02-14T15:15:56.999Z,99759.38
2018-02-14T15:18:24.760Z,99767.84
2018-02-14T15:20:52.296Z,99762.15
2018-02-14T15:23:21.642Z,99763.88
2018-02-14T15:25:49.154Z,99765.88
2018-02-14T15:28:16.614Z,99775.08
2018-02-14T15:30:44.208Z,99774.66
2018-02-14T15:33:11.757Z,99766.40
2018-02-14T15:35:39.271Z,99763.41
2018-02-14T15:38:07.711Z,99759.44
2018-02-14T15:40:35.207Z,99755.94
2018-02-14T15:43:02.792Z,99747.22
2018-02-14T15:45:30.324Z,99746.62
2018-02-14T15:47:57.841Z,99748.80
2018-02-14T15:50:25.487Z,99745.28
2018-02-14T15:52:53.075Z,99739.13
2018-02-14T15:55:20.609Z,99740.02
2018-02-14T15:57:48.252Z,99748.20
2018-02-14T16:00:15.740Z,99747.03
2018-02-14T16:02:43.256Z,99740.27
2018-02-14T16:05:10.847Z,99744.03
2018-02-14T16:07:38.388Z,99748.52
2018-02-14T16:10:06.016Z,99753.19
2018-02-14T16:12:33.578Z,99757.98
2018-02-14T16:15:01.039Z,99756.27
2018-02-14T16:17:28.535Z,99753.86
2018-02-14T16:19:56.023Z,99749.16
2018-02-14T16:22:23.508Z,99756.61
2018-02-14T16:24:51.003Z,99750.25
2018-02-14T16:29:45.357Z,99748.46
2018-02-14T16:32:12.880Z,99737.98
2018-02-14T16:34:40.359Z,99738.41
2018-02-14T16:37:07.917Z,99744.03
2018-02-14T16:39:35.517Z,99748.29
2018-02-14T16:42:03.055Z,99749.66
2018-02-14T16:44:30.591Z,99753.95
2018-02-14T16:46:58.083Z,99766.63
2018-02-14T16:49:25.620Z,99769.62
2018-02-14T16:51:53.160Z,99775.49
2018-02-14T16:57:03.629Z,99782.84
2018-02-14T16:59:31.122Z,99789.46
2018-02-14T17:01:58.643Z,99786.79
2018-02-14T17:04:26.139Z,99793.06
2018-02-14T17:06:53.736Z,99794.09
2018-02-14T17:09:21.256Z,99796.47
2018-02-14T17:11:48.754Z,99791.16
2018-02-14T17:14:16.252Z,99794.71
2018-02-14T17:16:43.768Z,99798.39
2018-02-14T17:19:11.270Z,99807.92
2018-02-14T17:21:38.769Z,99812.02
2018-02-14T17:24:06.287Z,99802.41
2018-02-14T17:26:33.834Z,99808.08
2018-02-14T17:29:01.315Z,99816.54
2018-02-14T17:31:28.846Z,99819.86
2018-02-14T17:33:56.348Z,99816.65
2018-02-14T17:36:23.867Z,99813.54
2018-02-14T17:38:51.372Z,99822.45
2018-02-14T17:41:18.876Z,99823.48
2018-02-14T17:43:46.410Z,99824.66
2018-02-14T17:46:13.929Z,99837.55
2018-02-14T17:48:41.428Z,99850.81
2018-02-14T17:51:08.923Z,99870.09
2018-02-14T17:53:36.496Z,99867.89
2018-02-14T17:56:04.028Z,99862.91
2018-02-14T17:58:31.532Z,99860.80
2018-02-14T18:00:59.023Z,99866.53
2018-02-14T18:03:26.549Z,99870.58
2018-02-14T18:05:54.037Z,99854.23
2018-02-14T18:08:21.540Z,99851.25
2018-02-14T18:10:49.067Z,99875.22
2018-02-14T18:13:16.562Z,99874.20
2018-02-14T18:15:44.085Z,99862.11
2018-02-14T18:18:11.590Z,99859.20
2018-02-14T18:20:39.098Z,99868.34
2018-02-14T18:23:06.607Z,99865.88
2018-02-14T18:25:34.154Z,99870.80
2018-02-14T18:28:01.703Z,99879.52
2018-02-14T18:30:29.274Z,99885.33
2018-02-14T18:32:56.762Z,99884.16
2018-02-14T18:35:24.255Z,99890.39
2018-02-14T18:37:51.778Z,99896.16
2018-02-14T18:40:19.266Z,99898.92
2018-02-14T18:42:46.757Z,99898.12
2018-02-14T18:45:14.240Z,99902.58
2018-02-14T18:47:41.739Z,99908.34
2018-02-14T18:50:09.231Z,99907.57
2018-02-14T18:52:36.714Z,99904.16
2018-02-14T18:55:04.255Z,99909.39
2018-02-14T18:57:31.802Z,99920.36
2018-02-14T18:59:59.356Z,99925.20
2018-02-14T19:02:26.843Z,99917.86
2018-02-14T19:04:54.352Z,99914.95
2018-02-14T19:07:23.059Z,99917.65
2018-02-14T19:09:50.619Z,99915.96
2018-02-14T19:12:18.171Z,99925.52
2018-02-14T19:14:45.807Z,99936.86
2018-02-14T19:17:13.379Z,99943.81
2018-02-14T19:19:40.941Z,99947.75
2018-02-14T19:22:08.461Z,99944.31
2018-02-14T19:24:36.013Z,99952.95
2018-02-14T19:27:04.267Z,99972.05
2018-02-14T19:29:32.483Z,99979.36
2018-02-14T19:32:00.064Z,99969.84
2018-02-14T19:34:27.609Z,99961.20
2018-02-14T19:36:55.209Z,99960.30
2018-02-14T19:39:22.719Z,99957.66
2018-02-14T19:41:50.215Z,99954.98
2018-02-14T19:44:18.751Z,99964.89
2018-02-14T19:46:46.262Z,99975.61
2018-02-14T19:49:13.864Z,99981.62
2018-02-14T19:51:41.378Z,99985.87
2018-02-14T19:54:08.875Z,99994.91
2018-02-14T19:56:36.368Z,99988.77
2018-02-14T19:59:03.892Z,99982.23
2018-02-14T20:01:31.387Z,99983.50
2018-02-14T20:03:58.902Z,99972.19
2018-02-14T20:06:26.406Z,99975.17
2018-02-14T20:08:53.895Z,99986.80
2018-02-14T20:11:21.395Z,99995.03
2018-02-14T20:13:48.888Z,99999.25
2018-02-14T20:16:16.373Z,99998.41
2018-02-14T20:18:43.888Z,100002.80
2018-02-14T20:21:11.382Z,100016.15
2018-02-14T20:23:38.891Z,100016.98
2018-02-14T20:26:06.388Z,100008.70
2018-02-14T20:28:33.903Z,100008.70
2018-02-14T20:31:01.407Z,100013.94
2018-02-14T20:33:28.920Z,100018.71
2018-02-14T20:35:56.444Z,100024.83
2018-02-14T20:38:23.939Z,100020.15
2018-02-14T20:40:51.463Z,100021.09
2018-02-14T20:43:19.002Z,100026.36
2018-02-14T20:45:46.531Z,100022.56
2018-02-14T20:48:14.028Z,100016.20
2018-02-14T20:50:41.547Z,100024.10
2018-02-14T20:53:09.035Z,100022.41
2018-02-14T20:55:36.526Z,100010.81
2018-02-14T20:58:03.990Z,100018.22
2018-02-14T21:00:31.619Z,100019.63
2018-02-14T21:02:59.120Z,100023.23
2018-02-14T21:05:26.633Z,100024.19
2018-02-14T21:07:54.141Z,100024.70
2018-02-14T21:10:21.633Z,100026.00
2018-02-14T21:12:49.173Z,100036.95
2018-02-14T21:15:16.740Z,100038.32
2018-02-14T21:17:44.231Z,100031.44
2018-02-14T21:20:11.720Z,100042.74
2018-02-14T21:22:39.223Z,100043.72
2018-02-14T21:25:06.711Z,100042.03
2018-02-14T21:27:34.278Z,100048.14
2018-02-14T21:30:01.790Z,100049.99
2018-02-14T21:32:29.284Z,100064.32
2018-02-14T21:34:56.774Z,100057.40
2018-02-14T21:37:24.281Z,100058.66
2018-02-14T21:42:24.863Z,100067.63
2018-02-14T21:44:52.371Z,100063.70
2018-02-14T21:47:19.928Z,100067.21
2018-02-14T21:49:47.432Z,100065.81
2018-02-14T21:52:15.114Z,100072.28
2018-02-14T21:54:42.614Z,100080.17
2018-02-14T21:57:10.109Z,100086.67
2018-02-14T21:59:37.789Z,100087.58
2018-02-14T22:02:05.305Z,100084.56
2018-02-14T22:04:32.821Z,100078.06
2018-02-14T22:07:00.340Z,100068.09
2018-02-14T22:09:27.971Z,100075.04
2018-02-14T22:11:55.464Z,100080.30
2018-02-14T22:14:22.977Z,100090.21
2018-02-14T22:16:50.463Z,100094.59
2018-02-14T22:19:17.961Z,100091.58
2018-02-14T22:21:45.477Z,100086.80
2018-02-14T22:24:12.971Z,100094.17
2018-02-14T22:26:40.483Z,100090.63
2018-02-14T22:29:07.972Z,100086.80
2018-02-14T22:31:35.532Z,100092.88
2018-02-14T22:34:03.021Z,100097.20
2018-02-14T22:36:30.552Z,100095.89
2018-02-14T22:38:58.079Z,100107.59
2018-02-14T22:41:25.583Z,100111.84
2018-02-14T22:43:53.086Z,100094.95
2018-02-14T22:46:20.575Z,100112.23
2018-02-14T22:48:48.104Z,100112.66
2018-02-14T22:51:15.607Z,100108.30
2018-02-14T22:53:43.116Z,100107.98
2018-02-14T22:56:10.634Z,100106.68
2018-02-14T22:58:38.166Z,100102.88
2018-02-14T23:01:05.681Z,100102.55
2018-02-14T23:03:33.208Z,100117.43
2018-02-14T23:06:00.715Z,100127.14
2018-02-14T23:08:28.195Z,100127.30
2018-02-14T23:10:55.695Z,100129.18
2018-02-14T23:13:23.229Z,100131.06
2018-02-14T23:15:50.795Z,100128.16
2018-02-14T23:18:18.295Z,100133.91
2018-02-14T23:20:45.804Z,100132.22
2018-02-14T23:23:13.313Z,100133.65
2018-02-14T23:25:40.854Z,100141.53
2018-02-14T23:28:08.451Z,100147.73
2018-02-14T23:30:35.957Z,100153.41
2018-02-14T23:33:03.459Z,100153.51
2018-02-14T23:35:30.962Z,100163.95
2018-02-14T23:37:58.470Z,100166.10
2018-02-14T23:40:25.979Z,100171.69
2018-02-14T23:42:53.501Z,100176.91
2018-02-14T23:45:21.003Z,100171.27
2018-02-14T23:47:48.529Z,100169.55
2018-02-14T23:50:16.019Z,100168.58
2018-02-14T23:52:43.534Z,100168.45
2018-02-14T23:55:11.019Z,100167.52
2018-02-14T23:57:38.523Z,100168.75
